Time;durP1;ratioP1;P1;durP2;ratioP2;P2;SDS_P1;SDS_P2;PMS_P1;PMS_P2;Temp;Humidity;BMP_temperature;BMP_pressure;BME280_temperature;BME280_humidity;BME280_pressure;Samples;Min_cycle;Max_cycle;Signal;HPM_P1;HPM_P2
2023/02/03 00:01:08;;;;;;;13.53;3.07;;;;;;;3.26;100.00;101601.25;4993896;28;20461;-65
2023/02/03 00:03:34;;;;;;;6.93;2.03;;;;;;;3.26;100.00;101594.03;4993576;28;20453;-65
2023/02/03 00:06:01;;;;;;;6.87;2.00;;;;;;;3.33;100.00;101587.81;4993833;28;20453;-65
2023/02/03 00:08:28;;;;;;;9.77;2.43;;;;;;;3.39;100.00;101584.19;4993843;28;20448;-66
2023/02/03 00:10:55;;;;;;;10.73;2.17;;;;;;;3.38;100.00;101582.56;4993738;28;20501;-65
2023/02/03 00:13:22;;;;;;;13.90;2.70;;;;;;;3.38;100.00;101572.69;4993790;28;20449;-65
2023/02/03 00:15:50;;;;;;;7.07;2.17;;;;;;;3.42;100.00;101575.72;4993530;28;20441;-65
2023/02/03 00:18:16;;;;;;;6.27;1.90;;;;;;;3.44;100.00;101562.91;4993666;28;20488;-65
2023/02/03 00:20:43;;;;;;;5.83;1.90;;;;;;;3.46;100.00;101550.13;4993463;28;20464;-65
2023/02/03 00:23:12;;;;;;;7.60;1.90;;;;;;;3.45;100.00;101538.59;4993765;28;20521;-65
2023/02/03 00:25:39;;;;;;;12.30;2.60;;;;;;;3.42;100.00;101540.91;4993735;28;20451;-65
2023/02/03 00:28:06;;;;;;;13.50;2.47;;;;;;;3.40;100.00;101522.38;4993648;28;20443;-66
2023/02/03 00:30:34;;;;;;;8.67;2.13;;;;;;;3.41;100.00;101517.81;4993339;28;20930;-65
2023/02/03 00:33:02;;;;;;;8.37;2.40;;;;;;;3.41;100.00;101509.78;4993363;28;20453;-65
2023/02/03 00:35:30;;;;;;;6.97;2.37;;;;;;;3.44;100.00;101510.16;4993657;28;20441;-65
2023/02/03 00:37:57;;;;;;;8.37;2.00;;;;;;;3.44;100.00;101507.47;4993492;28;20492;-66
2023/02/03 00:40:25;;;;;;;7.30;2.00;;;;;;;3.46;100.00;101493.88;4993511;28;20451;-66
2023/02/03 00:42:53;;;;;;;6.13;1.97;;;;;;;3.46;100.00;101483.97;4993576;28;20449;-66
2023/02/03 00:45:20;;;;;;;14.13;2.53;;;;;;;3.46;100.00;101491.19;4993518;28;20453;-65
2023/02/03 00:47:46;;;;;;;12.70;2.33;;;;;;;3.44;100.00;101491.41;4993474;28;20445;-66
2023/02/03 00:50:14;;;;;;;6.60;2.07;;;;;;;3.46;100.00;101489.34;4993567;28;20882;-65
2023/02/03 00:52:41;;;;;;;9.20;2.23;;;;;;;3.44;100.00;101480.69;4993056;28;20455;-66
2023/02/03 00:55:09;;;;;;;8.93;2.00;;;;;;;3.42;100.00;101480.13;4993059;28;20845;-68
2023/02/03 00:57:35;;;;;;;7.50;2.20;;;;;;;3.44;100.00;101474.53;4993327;28;20815;-66
2023/02/03 01:00:03;;;;;;;7.63;2.43;;;;;;;3.47;100.00;101469.53;4995263;28;20491;-66
2023/02/03 01:02:29;;;;;;;8.23;2.43;;;;;;;3.50;100.00;101466.41;4997146;28;20468;-66
2023/02/03 01:04:56;;;;;;;8.43;1.70;;;;;;;3.52;100.00;101458.94;4997141;28;20445;-66
2023/02/03 01:07:24;;;;;;;9.30;3.33;;;;;;;3.55;100.00;101452.31;4996789;28;20448;-66
2023/02/03 01:09:51;;;;;;;11.77;2.80;;;;;;;3.47;100.00;101452.66;4996975;28;20444;-66
2023/02/03 01:12:17;;;;;;;7.07;2.37;;;;;;;3.49;100.00;101447.88;4996647;28;20469;-66
2023/02/03 01:14:44;;;;;;;11.10;2.87;;;;;;;3.51;100.00;101449.28;4996990;28;20815;-66
2023/02/03 01:17:10;;;;;;;26.73;2.60;;;;;;;3.52;100.00;101445.53;4996922;28;20444;-66
2023/02/03 01:19:37;;;;;;;10.03;2.90;;;;;;;3.47;100.00;101432.03;4996838;28;20567;-66
2023/02/03 01:22:03;;;;;;;8.67;2.50;;;;;;;3.47;100.00;101431.22;4996704;28;20464;-67
2023/02/03 01:24:32;;;;;;;13.83;2.93;;;;;;;3.42;100.00;101431.94;4996727;28;20449;-68
2023/02/03 01:26:58;;;;;;;7.80;2.13;;;;;;;3.42;100.00;101431.94;4996785;28;20465;-68
2023/02/03 01:29:25;;;;;;;7.60;2.50;;;;;;;3.38;100.00;101422.72;4996580;28;20588;-67
2023/02/03 01:31:51;;;;;;;6.30;2.40;;;;;;;3.38;100.00;101400.50;4996550;28;20465;-66
2023/02/03 01:34:18;;;;;;;13.80;2.57;;;;;;;3.34;100.00;101400.13;4996527;28;20543;-65
2023/02/03 01:36:45;;;;;;;9.77;2.80;;;;;;;3.41;100.00;101394.66;4996324;28;20456;-65
2023/02/03 01:39:12;;;;;;;14.47;3.23;;;;;;;3.40;100.00;101398.38;4996485;28;20487;-66
2023/02/03 01:41:40;;;;;;;9.97;2.93;;;;;;;3.43;100.00;101384.53;4996425;28;20556;-64
2023/02/03 01:44:38;;;;;;;10.90;2.70;;;;;;;3.44;100.00;101373.59;4996172;28;20455;-64
2023/02/03 01:47:10;;;;;;;7.90;2.30;;;;;;;3.39;100.00;101353.91;4996362;28;20429;-66
2023/02/03 01:49:39;;;;;;;8.27;2.40;;;;;;;3.38;100.00;101355.78;4996480;28;20445;-65
2023/02/03 01:52:06;;;;;;;10.33;2.50;;;;;;;3.41;100.00;101352.66;4995974;28;20984;-65
2023/02/03 01:54:38;;;;;;;17.23;2.80;;;;;;;3.39;100.00;101354.72;4995965;28;20500;-66
2023/02/03 01:57:13;;;;;;;9.87;2.13;;;;;;;3.36;100.00;101344.47;4996271;28;20447;-65
2023/02/03 01:59:40;;;;;;;6.93;2.10;;;;;;;3.35;100.00;101347.41;4996161;28;20473;-66
2023/02/03 02:02:07;;;;;;;7.70;2.40;;;;;;;3.35;100.00;101331.34;4996049;28;20559;-66
2023/02/03 02:04:42;;;;;;;9.57;2.60;;;;;;;3.30;100.00;101324.00;4996088;28;20533;-66
2023/02/03 02:07:10;;;;;;;6.00;1.57;;;;;;;3.29;100.00;101312.47;4996033;28;20523;-66
2023/02/03 02:09:36;;;;;;;9.20;2.20;;;;;;;3.31;100.00;101298.03;4995966;28;20475;-65
2023/02/03 02:12:03;;;;;;;7.50;2.30;;;;;;;3.28;100.00;101297.47;4994919;28;21023;-66
2023/02/03 02:14:32;;;;;;;7.60;2.43;;;;;;;3.32;100.00;101294.31;4995879;28;20878;-66
2023/02/03 02:17:09;;;;;;;8.50;3.10;;;;;;;3.25;100.00;101284.56;4995891;28;20507;-65
2023/02/03 02:20:07;;;;;;;6.17;2.20;;;;;;;3.28;100.00;101277.94;4995436;28;21053;-65
2023/02/03 02:22:50;;;;;;;5.87;1.90;;;;;;;3.28;100.00;101264.53;4994908;28;20461;-66
2023/02/03 02:25:43;;;;;;;11.33;2.70;;;;;;;3.28;100.00;101251.16;4995646;28;20433;-66
2023/02/03 02:28:45;;;;;;;6.30;2.13;;;;;;;3.33;100.00;101240.56;4995533;28;20433;-65
2023/02/03 02:31:38;;;;;;;11.50;2.07;;;;;;;3.26;100.00;101221.94;4995564;28;20496;-66
2023/02/03 02:34:13;;;;;;;5.90;2.00;;;;;;;3.23;100.00;101214.38;4995553;28;20429;-66
2023/02/03 02:36:49;;;;;;;6.53;2.00;;;;;;;3.19;100.00;101207.06;4995203;28;20431;-66
2023/02/03 02:39:25;;;;;;;7.50;2.00;;;;;;;3.17;100.00;101201.94;4995334;28;20472;-66
2023/02/03 02:41:57;;;;;;;6.60;2.20;;;;;;;3.15;100.00;101198.69;4995311;28;20477;-66
2023/02/03 02:44:30;;;;;;;8.93;1.90;;;;;;;3.16;100.00;101184.25;4995357;28;20431;-66
2023/02/03 02:47:01;;;;;;;5.20;1.53;;;;;;;3.13;100.00;101182.03;4995036;28;20505;-66
2023/02/03 02:49:33;;;;;;;5.07;1.40;;;;;;;3.08;100.00;101176.59;4995278;28;20429;-66
2023/02/03 02:52:03;;;;;;;6.90;2.10;;;;;;;3.16;100.00;101167.38;4995138;28;20479;-66
2023/02/03 02:54:33;;;;;;;6.53;1.80;;;;;;;3.21;100.00;101164.81;4994737;28;20460;-66
2023/02/03 02:57:03;;;;;;;6.97;1.93;;;;;;;3.14;100.00;101170.28;4994814;28;20979;-65
2023/02/03 02:59:30;;;;;;;8.70;1.93;;;;;;;3.13;100.00;101157.16;4994668;28;21115;-66
2023/02/03 03:01:58;;;;;;;6.40;1.70;;;;;;;3.17;100.00;101150.25;4994595;28;20464;-66
2023/02/03 03:04:27;;;;;;;6.60;2.00;;;;;;;3.17;100.00;101142.25;4994631;28;21012;-66
2023/02/03 03:06:59;;;;;;;7.50;1.80;;;;;;;3.22;100.00;101151.16;4994885;28;20441;-66
2023/02/03 03:09:34;;;;;;;4.77;1.30;;;;;;;3.23;100.00;101146.63;4994964;28;20456;-66
2023/02/03 03:12:07;;;;;;;7.40;1.70;;;;;;;3.24;100.00;101142.91;4994448;28;20522;-65
2023/02/03 03:14:36;;;;;;;7.67;2.13;;;;;;;3.25;100.00;101129.28;4994830;28;20431;-67
2023/02/03 03:17:08;;;;;;;6.13;2.00;;;;;;;3.29;100.00;101114.38;4994682;28;20444;-67
2023/02/03 03:19:39;;;;;;;9.13;3.00;;;;;;;3.27;100.00;101103.06;4994633;28;20468;-66
2023/02/03 03:22:08;;;;;;;6.90;2.00;;;;;;;3.21;100.00;101098.69;4994200;28;20556;-66
2023/02/03 03:24:41;;;;;;;5.00;1.30;;;;;;;3.24;100.00;101106.25;4994106;28;20476;-65
2023/02/03 03:27:13;;;;;;;5.03;1.50;;;;;;;3.27;100.00;101084.34;4994597;28;20804;-65
2023/02/03 03:29:42;;;;;;;5.07;1.47;;;;;;;3.24;100.00;101079.50;4994528;28;20426;-65
2023/02/03 03:32:10;;;;;;;4.93;1.17;;;;;;;3.25;100.00;101065.03;4994391;28;20464;-66
2023/02/03 03:34:37;;;;;;;10.23;2.10;;;;;;;3.28;100.00;101069.94;4994379;28;20468;-66
2023/02/03 03:37:11;;;;;;;6.03;1.73;;;;;;;3.32;100.00;101074.78;4994423;28;20797;-65
2023/02/03 03:39:46;;;;;;;5.97;1.60;;;;;;;3.35;100.00;101068.94;4994168;28;20555;-66
2023/02/03 03:42:20;;;;;;;5.70;1.30;;;;;;;3.40;100.00;101066.34;4994292;28;20500;-64
2023/02/03 03:44:54;;;;;;;6.87;1.67;;;;;;;3.39;100.00;101054.84;4994314;28;20432;-65
2023/02/03 03:47:28;;;;;;;6.10;1.30;;;;;;;3.36;100.00;101062.53;4994255;28;20508;-64
2023/02/03 03:49:57;;;;;;;5.50;1.80;;;;;;;3.41;100.00;101071.50;4993980;28;20420;-64
2023/02/03 03:52:29;;;;;;;5.63;1.80;;;;;;;3.45;100.00;101055.72;4993801;28;21040;-65
2023/02/03 03:54:57;;;;;;;5.50;1.73;;;;;;;3.47;100.00;101046.41;4993765;28;20973;-64
2023/02/03 03:57:28;;;;;;;6.30;2.03;;;;;;;3.42;100.00;101066.94;4993970;28;20547;-65
2023/02/03 03:59:55;;;;;;;6.40;1.73;;;;;;;3.46;100.00;101076.94;4994042;28;20461;-66
2023/02/03 04:02:24;;;;;;;5.50;1.80;;;;;;;3.44;100.00;101073.66;4993946;28;20477;-66
2023/02/03 04:04:51;;;;;;;5.87;1.80;;;;;;;3.56;100.00;101064.78;4993675;28;20477;-66
2023/02/03 04:07:19;;;;;;;5.23;1.30;;;;;;;3.62;100.00;101043.16;4993608;28;20445;-66
2023/02/03 04:09:45;;;;;;;5.37;1.43;;;;;;;3.66;100.00;101036.28;4994076;28;20452;-66
2023/02/03 04:12:21;;;;;;;5.60;1.70;;;;;;;3.73;100.00;101026.22;4993614;28;20457;-66
2023/02/03 04:14:48;;;;;;;6.10;1.90;;;;;;;3.73;100.00;101023.53;4994166;28;20431;-66
2023/02/03 04:17:15;;;;;;;6.50;2.20;;;;;;;3.82;100.00;101023.94;4993673;28;20961;-66
2023/02/03 04:19:43;;;;;;;8.07;2.33;;;;;;;3.93;100.00;101016.84;4993937;28;20602;-65
2023/02/03 04:22:09;;;;;;;6.87;2.10;;;;;;;4.00;100.00;100990.69;4993847;28;20556;-66
2023/02/03 04:24:36;;;;;;;7.50;2.93;;;;;;;4.00;100.00;100975.44;4993920;28;20477;-66
2023/02/03 04:27:03;;;;;;;7.97;3.20;;;;;;;4.07;100.00;100980.59;4994217;28;20536;-66
2023/02/03 04:29:29;;;;;;;7.53;2.67;;;;;;;4.09;100.00;100985.72;4993879;28;20451;-66
2023/02/03 04:31:56;;;;;;;10.43;2.97;;;;;;;4.13;100.00;100986.84;4993848;28;20472;-66
2023/02/03 04:34:22;;;;;;;8.60;2.53;;;;;;;4.15;100.00;100972.13;4995012;28;20455;-66
2023/02/03 04:36:50;;;;;;;7.40;2.90;;;;;;;4.19;100.00;100978.63;4997629;28;20449;-66
2023/02/03 04:39:17;;;;;;;8.43;3.87;;;;;;;4.24;100.00;100970.63;4997464;28;20531;-65
2023/02/03 04:41:43;;;;;;;8.57;2.80;;;;;;;4.30;100.00;100963.47;4997551;28;20474;-66
2023/02/03 04:44:10;;;;;;;9.07;3.13;;;;;;;4.41;100.00;100959.03;4997665;28;20449;-65
2023/02/03 04:46:36;;;;;;;9.93;3.20;;;;;;;4.46;100.00;100943.81;4997341;28;20544;-66
2023/02/03 04:49:03;;;;;;;9.33;3.23;;;;;;;4.50;100.00;100936.88;4997802;28;20445;-66
2023/02/03 04:51:30;;;;;;;10.83;4.03;;;;;;;4.62;100.00;100927.88;4997556;28;20461;-65
2023/02/03 04:53:58;;;;;;;12.50;4.40;;;;;;;4.72;100.00;100918.06;4997150;28;20464;-66
2023/02/03 04:56:24;;;;;;;10.40;4.00;;;;;;;4.78;100.00;100922.44;4997522;28;20445;-66
2023/02/03 04:58:51;;;;;;;13.73;4.73;;;;;;;4.90;100.00;100930.31;4997257;28;20447;-66
2023/02/03 05:01:17;;;;;;;12.00;5.20;;;;;;;4.93;100.00;100931.69;4997115;28;20463;-65
2023/02/03 05:03:44;;;;;;;13.00;5.70;;;;;;;4.99;100.00;100931.44;4997089;28;20507;-66
2023/02/03 05:06:11;;;;;;;12.10;5.00;;;;;;;5.10;100.00;100918.94;4997102;28;20500;-64
2023/02/03 05:08:37;;;;;;;14.13;4.60;;;;;;;5.17;100.00;100919.53;4997110;28;20443;-65
2023/02/03 05:11:05;;;;;;;12.43;5.23;;;;;;;5.22;100.00;100918.75;4996843;28;20507;-66
2023/02/03 05:13:32;;;;;;;15.30;6.53;;;;;;;5.25;100.00;100911.00;4997098;28;20475;-66
2023/02/03 05:15:59;;;;;;;18.37;6.83;;;;;;;5.34;100.00;100900.59;4996911;28;20499;-68
2023/02/03 05:18:25;;;;;;;27.93;6.03;;;;;;;5.43;100.00;100893.66;4996785;28;20449;-66
2023/02/03 05:20:52;;;;;;;15.10;6.90;;;;;;;5.51;100.00;100903.91;4996707;28;20497;-68
2023/02/03 05:23:18;;;;;;;16.80;6.67;;;;;;;5.56;100.00;100884.34;4996546;28;20862;-67
2023/02/03 05:25:45;;;;;;;14.10;5.67;;;;;;;5.61;100.00;100884.38;4996695;28;20822;-66
2023/02/03 05:28:13;;;;;;;19.73;6.33;;;;;;;5.66;100.00;100879.00;4996660;28;20480;-66
2023/02/03 05:30:40;;;;;;;16.67;7.07;;;;;;;5.69;100.00;100883.88;4996632;28;20536;-66
2023/02/03 05:33:07;;;;;;;19.53;7.27;;;;;;;5.77;100.00;100878.00;4996632;28;20447;-68
2023/02/03 05:35:34;;;;;;;16.70;6.73;;;;;;;5.88;100.00;100868.09;4996185;28;20974;-67
2023/02/03 05:38:01;;;;;;;26.27;8.90;;;;;;;5.97;100.00;100869.22;4996517;28;20476;-67
2023/02/03 05:43:13;;;;;;;14.30;6.83;;;;;;;6.07;100.00;100857.72;4996317;28;20541;-68
2023/02/03 05:45:40;;;;;;;22.60;9.57;;;;;;;6.12;100.00;100855.06;4995383;28;20823;-68
2023/02/03 05:48:07;;;;;;;17.47;7.17;;;;;;;6.23;100.00;100855.88;4996109;28;20898;-68
2023/02/03 05:50:34;;;;;;;18.17;7.40;;;;;;;6.25;100.00;100841.09;4995958;28;20957;-68
2023/02/03 05:53:01;;;;;;;14.67;7.47;;;;;;;6.35;100.00;100843.00;4996013;28;20459;-68
2023/02/03 05:55:28;;;;;;;19.63;9.13;;;;;;;6.35;100.00;100845.69;4995975;28;20950;-68
2023/02/03 05:57:54;;;;;;;20.40;8.67;;;;;;;6.41;100.00;100841.94;4995902;28;20444;-66
2023/02/03 06:00:23;;;;;;;18.33;8.00;;;;;;;6.43;100.00;100828.22;4995986;28;20583;-65
2023/02/03 06:02:53;;;;;;;20.30;8.30;;;;;;;6.44;100.00;100814.50;4996069;28;20488;-66
2023/02/03 06:05:20;;;;;;;21.93;8.83;;;;;;;6.51;100.00;100800.78;4996057;28;20444;-68
2023/02/03 06:07:47;;;;;;;17.73;6.63;;;;;;;6.51;100.00;100798.91;4996043;28;20539;-68
2023/02/03 06:10:13;;;;;;;16.77;6.83;;;;;;;6.50;100.00;100791.09;4995995;28;20440;-66
2023/02/03 06:12:40;;;;;;;19.50;8.47;;;;;;;6.60;100.00;100784.88;4995824;28;20464;-66
2023/02/03 06:15:07;;;;;;;18.43;8.00;;;;;;;6.61;100.00;100775.75;4995837;28;20456;-68
2023/02/03 06:17:36;;;;;;;17.27;7.93;;;;;;;6.63;100.00;100779.78;4995539;28;20980;-68
2023/02/03 06:20:03;;;;;;;16.43;6.80;;;;;;;6.70;100.00;100779.53;4995718;28;20480;-68
2023/02/03 06:22:29;;;;;;;17.17;7.87;;;;;;;6.74;100.00;100776.03;4995909;28;20473;-68
2023/02/03 06:24:56;;;;;;;19.37;7.90;;;;;;;6.76;100.00;100770.34;4995424;28;20451;-68
2023/02/03 06:27:23;;;;;;;16.33;7.00;;;;;;;6.78;100.00;100781.69;4995318;28;20942;-66
2023/02/03 06:29:50;;;;;;;21.03;8.60;;;;;;;6.75;100.00;100774.94;4995249;28;20445;-69
2023/02/03 06:32:16;;;;;;;14.10;7.10;;;;;;;6.78;100.00;100768.22;4995232;28;20982;-69
2023/02/03 06:34:44;;;;;;;17.57;8.17;;;;;;;6.85;100.00;100776.00;4995560;28;20445;-68
2023/02/03 06:37:11;;;;;;;18.57;7.40;;;;;;;6.86;100.00;100773.03;4995520;28;20871;-69
2023/02/03 06:39:38;;;;;;;20.63;7.17;;;;;;;6.86;100.00;100777.59;4995103;28;21008;-69
2023/02/03 06:42:04;;;;;;;20.40;9.03;;;;;;;6.90;100.00;100773.28;4995307;28;20548;-69
2023/02/03 06:44:31;;;;;;;17.60;7.23;;;;;;;6.92;100.00;100765.78;4995433;28;20484;-67
2023/02/03 06:46:58;;;;;;;22.73;8.87;;;;;;;6.96;100.00;100761.47;4995170;28;20461;-67
2023/02/03 06:49:24;;;;;;;17.33;8.40;;;;;;;7.03;100.00;100743.13;4995293;28;20453;-66
2023/02/03 06:51:52;;;;;;;14.80;6.93;;;;;;;7.02;100.00;100744.19;4995091;28;20544;-66
2023/02/03 06:54:19;;;;;;;15.50;6.50;;;;;;;7.02;100.00;100746.88;4994810;28;21133;-65
2023/02/03 06:56:46;;;;;;;23.40;8.47;;;;;;;7.12;100.00;100746.84;4995052;28;20451;-69
2023/02/03 06:59:12;;;;;;;16.13;6.97;;;;;;;7.11;100.00;100742.56;4995011;28;20457;-67
2023/02/03 07:01:40;;;;;;;17.27;7.50;;;;;;;7.13;100.00;100734.19;4994855;28;20512;-67
2023/02/03 07:04:07;;;;;;;15.13;6.37;;;;;;;7.17;100.00;100728.00;4994941;28;20529;-67
2023/02/03 07:06:33;;;;;;;22.97;6.97;;;;;;;7.21;100.00;100720.97;4994929;28;20527;-67
2023/02/03 07:09:03;;;;;;;15.23;7.20;;;;;;;7.22;100.00;100717.22;4994863;28;20451;-67
2023/02/03 07:11:30;;;;;;;15.03;6.80;;;;;;;7.23;100.00;100726.91;4994761;28;20457;-67
2023/02/03 07:13:57;;;;;;;16.83;7.47;;;;;;;7.26;100.00;100712.88;4994846;28;20472;-68
2023/02/03 07:16:26;;;;;;;12.73;6.23;;;;;;;7.21;100.00;100709.38;4994757;28;20540;-66
2023/02/03 07:18:52;;;;;;;17.17;6.47;;;;;;;7.21;100.00;100699.41;4994697;28;20456;-68
2023/02/03 07:21:19;;;;;;;21.30;7.90;;;;;;;7.34;100.00;100698.81;4994471;28;20515;-69
2023/02/03 07:23:48;;;;;;;17.43;7.90;;;;;;;7.27;100.00;100692.94;4994589;28;20447;-68
2023/02/03 07:26:17;;;;;;;16.17;7.57;;;;;;;7.32;100.00;100689.41;4994539;28;20437;-68
2023/02/03 07:28:44;;;;;;;12.93;6.07;;;;;;;7.37;100.00;100683.19;4994448;28;20473;-68
2023/02/03 07:31:11;;;;;;;15.37;6.43;;;;;;;7.31;100.00;100677.84;4994377;28;20457;-68
2023/02/03 07:33:39;;;;;;;18.07;7.63;;;;;;;7.37;100.00;100670.53;4994416;28;20451;-68
2023/02/03 07:36:07;;;;;;;16.73;7.47;;;;;;;7.31;100.00;100663.56;4994082;28;20945;-68
2023/02/03 07:38:33;;;;;;;13.50;6.13;;;;;;;7.34;100.00;100663.00;4977048;28;20441;-68
2023/02/03 07:41:00;;;;;;;15.93;6.83;;;;;;;7.29;100.00;100658.44;4994186;28;20490;-68
2023/02/03 07:43:28;;;;;;;12.67;5.53;;;;;;;7.23;100.00;100642.59;4994306;28;20441;-68
2023/02/03 07:45:54;;;;;;;13.33;6.13;;;;;;;7.29;100.00;100644.97;4994291;28;20523;-68
2023/02/03 07:48:21;;;;;;;17.40;5.90;;;;;;;7.37;100.00;100632.00;4994206;28;20826;-66
2023/02/03 07:50:49;;;;;;;12.37;5.97;;;;;;;7.42;100.00;100648.94;4994006;28;20500;-68
2023/02/03 07:53:16;;;;;;;14.70;5.80;;;;;;;7.38;100.00;100639.00;4993947;28;20539;-68
2023/02/03 07:55:42;;;;;;;13.53;6.60;;;;;;;7.39;100.00;100629.81;4994204;28;20791;-68
2023/02/03 07:58:09;;;;;;;12.00;6.60;;;;;;;7.41;100.00;100627.66;4993716;28;20451;-66
2023/02/03 08:00:37;;;;;;;15.60;6.50;;;;;;;7.46;100.00;100638.41;4993911;28;20487;-66
2023/02/03 08:03:04;;;;;;;11.63;4.77;;;;;;;7.40;100.00;100620.69;4993662;28;20444;-68
2023/02/03 08:05:30;;;;;;;16.60;5.80;;;;;;;7.40;100.00;100612.59;4993929;28;20436;-67
2023/02/03 08:07:58;;;;;;;12.00;5.60;;;;;;;7.42;100.00;100613.09;4993625;28;20524;-66
2023/02/03 08:10:25;;;;;;;12.90;5.37;;;;;;;7.49;100.00;100606.31;4993344;28;20473;-66
2023/02/03 08:12:53;;;;;;;13.40;6.00;;;;;;;7.50;100.00;100610.63;4993613;28;20453;-66
2023/02/03 08:15:20;;;;;;;17.73;6.30;;;;;;;7.45;100.00;100597.19;4993884;28;20464;-66
2023/02/03 08:17:48;;;;;;;13.63;5.70;;;;;;;7.47;100.00;100599.59;4993780;28;20441;-66
2023/02/03 08:20:16;;;;;;;10.60;5.10;;;;;;;7.50;100.00;100589.06;4993683;28;20507;-66
2023/02/03 08:22:43;;;;;;;11.17;5.37;;;;;;;7.48;100.00;100590.41;4993679;28;20453;-66
2023/02/03 08:25:10;;;;;;;12.20;4.97;;;;;;;7.41;100.00;100596.13;4993450;28;20481;-66
2023/02/03 08:27:37;;;;;;;12.73;4.77;;;;;;;7.43;100.00;100585.88;4993473;28;20449;-66
2023/02/03 08:30:05;;;;;;;11.90;4.70;;;;;;;7.46;100.00;100589.91;4993714;28;20467;-66
2023/02/03 08:32:32;;;;;;;11.70;4.90;;;;;;;7.50;100.00;100582.88;4993657;28;20476;-67
2023/02/03 08:35:00;;;;;;;12.07;5.60;;;;;;;7.53;100.00;100576.94;4993696;28;20531;-66
2023/02/03 08:37:29;;;;;;;11.53;4.33;;;;;;;7.54;100.00;100573.94;4993665;28;20536;-66
2023/02/03 08:39:55;;;;;;;16.70;5.70;;;;;;;7.54;100.00;100555.06;4993514;28;20465;-66
2023/02/03 08:42:22;;;;;;;12.57;4.83;;;;;;;7.53;100.00;100575.03;4993235;28;20540;-67
2023/02/03 08:44:48;;;;;;;11.63;4.90;;;;;;;7.54;100.00;100557.78;4993654;28;20455;-66
2023/02/03 08:47:15;;;;;;;10.13;4.10;;;;;;;7.56;100.00;100546.69;4993562;28;20437;-66
2023/02/03 08:49:42;;;;;;;11.70;4.77;;;;;;;7.58;100.00;100558.03;4993194;28;20822;-67
2023/02/03 08:52:12;;;;;;;11.53;4.60;;;;;;;7.56;100.00;100539.41;4993447;28;20786;-67
2023/02/03 08:54:39;;;;;;;12.97;4.57;;;;;;;7.55;100.00;100537.00;4993286;28;20456;-67
2023/02/03 08:57:05;;;;;;;11.90;4.17;;;;;;;7.58;100.00;100528.38;4993441;28;20453;-67
2023/02/03 08:59:34;;;;;;;8.07;3.30;;;;;;;7.61;100.00;100527.00;4993179;28;20535;-67
2023/02/03 09:02:01;;;;;;;9.50;3.17;;;;;;;7.58;100.00;100525.69;4993334;28;20499;-69
2023/02/03 09:04:28;;;;;;;9.60;3.70;;;;;;;7.61;100.00;100522.41;4993152;28;20871;-68
2023/02/03 09:07:04;;;;;;;9.87;3.37;;;;;;;7.64;100.00;100519.16;4993517;28;20444;-67
2023/02/03 09:09:32;;;;;;;8.40;3.20;;;;;;;7.66;100.00;100521.53;4991505;28;20551;-67
2023/02/03 09:12:01;;;;;;;9.37;3.43;;;;;;;7.64;100.00;100521.84;4993024;28;20849;-68
2023/02/03 09:14:28;;;;;;;13.53;4.17;;;;;;;7.66;100.00;100516.16;4993337;28;20449;-68
2023/02/03 09:16:55;;;;;;;8.60;3.37;;;;;;;7.64;100.00;100521.84;4993290;28;20441;-68
2023/02/03 09:19:21;;;;;;;9.27;3.77;;;;;;;7.69;100.00;100504.81;4993215;28;20483;-68
2023/02/03 09:21:49;;;;;;;9.77;3.83;;;;;;;7.76;100.00;100510.69;4996360;28;20491;-68
2023/02/03 09:24:16;;;;;;;9.33;3.37;;;;;;;7.78;100.00;100493.13;4996502;28;20945;-68
2023/02/03 09:26:44;;;;;;;7.00;2.23;;;;;;;7.77;100.00;100496.91;4996815;28;20444;-68
2023/02/03 09:29:11;;;;;;;8.23;3.10;;;;;;;7.87;100.00;100522.97;4996722;28;20445;-68
2023/02/03 09:31:38;;;;;;;11.10;3.50;;;;;;;7.86;100.00;100501.69;4996323;28;20467;-68
2023/02/03 09:34:04;;;;;;;9.13;2.90;;;;;;;7.85;100.00;100476.63;4996286;28;20880;-69
2023/02/03 09:36:31;;;;;;;6.73;2.10;;;;;;;7.91;100.00;100480.88;4996572;28;20468;-68
2023/02/03 09:38:58;;;;;;;8.00;3.03;;;;;;;7.93;100.00;100477.91;4996605;28;20447;-68
2023/02/03 09:41:35;;;;;;;9.63;3.23;;;;;;;7.93;100.00;100488.69;4996384;28;20491;-67
2023/02/03 09:44:11;;;;;;;7.73;3.10;;;;;;;7.91;100.00;100480.88;4996514;28;20433;-68
2023/02/03 09:46:42;;;;;;;13.00;2.83;;;;;;;7.93;100.00;100464.44;4996469;28;20433;-68
2023/02/03 09:49:16;;;;;;;9.20;2.80;;;;;;;7.99;100.00;100463.28;4996444;28;20437;-69
2023/02/03 09:51:49;;;;;;;11.57;3.27;;;;;;;7.96;100.00;100464.63;4996292;28;20457;-68
2023/02/03 09:54:21;;;;;;;8.40;3.67;;;;;;;8.02;100.00;100458.13;4995870;28;20465;-68
2023/02/03 09:56:51;;;;;;;7.60;2.70;;;;;;;8.00;100.00;100451.38;4996266;28;20443;-68
2023/02/03 09:59:19;;;;;;;10.73;2.53;;;;;;;7.97;100.00;100449.25;4996233;28;20429;-68
2023/02/03 10:01:55;;;;;;;5.80;1.93;;;;;;;8.05;100.00;100432.44;4996032;28;20481;-68
2023/02/03 10:04:31;;;;;;;8.00;2.40;;;;;;;8.09;100.00;100430.78;4995831;28;20520;-68
2023/02/03 10:07:06;;;;;;;6.80;2.30;;;;;;;8.13;100.00;100422.91;4995929;28;20871;-68
2023/02/03 10:09:45;;;;;;;6.90;2.30;;;;;;;8.08;100.00;100399.50;4996041;28;20452;-68
2023/02/03 10:12:35;;;;;;;6.93;2.60;;;;;;;8.15;100.00;100402.66;4995900;28;20478;-68
2023/02/03 10:15:20;;;;;;;7.60;2.10;;;;;;;8.23;100.00;100402.00;4995951;28;20528;-69
2023/02/03 10:17:54;;;;;;;6.10;2.10;;;;;;;8.25;100.00;100399.81;4995900;28;20524;-68
2023/02/03 10:20:26;;;;;;;7.27;2.00;;;;;;;8.28;100.00;100412.75;4995750;28;20432;-68
2023/02/03 10:22:57;;;;;;;6.27;2.30;;;;;;;8.26;100.00;100423.00;4995564;28;20433;-69
2023/02/03 10:25:30;;;;;;;8.23;1.80;;;;;;;8.24;100.00;100421.72;4995774;28;20428;-68
2023/02/03 10:28:01;;;;;;;7.53;2.00;;;;;;;8.23;100.00;100423.59;4995718;28;20429;-68
2023/02/03 10:30:32;;;;;;;6.73;2.40;;;;;;;8.16;100.00;100401.56;4995613;28;20440;-68
2023/02/03 10:33:08;;;;;;;14.93;2.47;;;;;;;8.23;100.00;100417.38;4995034;28;20552;-69
2023/02/03 10:35:42;;;;;;;8.60;2.23;;;;;;;8.27;100.00;100453.50;4995542;28;20432;-68
2023/02/03 10:38:15;;;;;;;5.67;1.70;;;;;;;8.20;100.00;100461.94;4995279;28;20517;-67
2023/02/03 10:40:42;;;;;;;5.90;1.33;;;;;;;8.11;100.00;100466.38;4995330;28;20472;-69
2023/02/03 10:45:55;;;;;;;4.40;0.80;;;;;;;7.62;100.00;100489.00;4995266;28;20910;-68
2023/02/03 10:48:23;;;;;;;4.20;0.50;;;;;;;7.46;100.00;100501.78;4995226;28;20536;-69
2023/02/03 10:50:51;;;;;;;4.90;0.80;;;;;;;7.36;100.00;100503.75;4995080;28;20560;-69
2023/02/03 10:53:24;;;;;;;4.20;0.57;;;;;;;7.30;100.00;100489.50;4994797;28;20487;-69
2023/02/03 10:56:00;;;;;;;5.80;1.00;;;;;;;7.25;100.00;100495.72;4995225;28;20803;-69
2023/02/03 10:58:30;;;;;;;5.33;0.80;;;;;;;7.13;100.00;100500.69;4995127;28;20425;-68
2023/02/03 11:01:07;;;;;;;4.47;0.60;;;;;;;7.08;100.00;100484.53;4994678;28;20473;-69
2023/02/03 11:03:34;;;;;;;7.57;1.37;;;;;;;7.12;100.00;100512.53;4995080;28;20831;-69
2023/02/03 11:06:06;;;;;;;8.23;1.03;;;;;;;7.10;100.00;100490.47;4995018;28;20544;-69
2023/02/03 11:08:34;;;;;;;6.00;0.83;;;;;;;7.20;100.00;100492.28;4994644;28;20445;-68
2023/02/03 11:11:05;;;;;;;6.27;1.30;;;;;;;7.27;100.00;100493.59;4994847;28;20461;-68
2023/02/03 11:13:32;;;;;;;7.40;1.03;;;;;;;7.37;100.00;100489.19;4994867;28;20456;-68
2023/02/03 11:16:02;;;;;;;15.70;1.20;;;;;;;7.42;100.00;100481.06;4994816;28;20823;-68
2023/02/03 11:18:42;;;;;;;7.13;1.30;;;;;;;7.43;100.00;100496.13;4994731;28;20815;-68
2023/02/03 11:21:16;;;;;;;7.60;0.90;;;;;;;7.47;100.00;100498.00;4994159;28;20538;-67
2023/02/03 11:23:48;;;;;;;6.40;0.93;;;;;;;7.55;100.00;100469.63;4994367;28;20452;-68
2023/02/03 11:26:18;;;;;;;4.70;0.80;;;;;;;7.57;100.00;100468.28;4994598;28;20537;-68
2023/02/03 11:28:47;;;;;;;5.53;1.03;;;;;;;7.63;100.00;100455.53;4994592;28;20448;-68
2023/02/03 11:31:22;;;;;;;8.90;1.57;;;;;;;7.62;100.00;100461.22;4994521;28;20457;-68
2023/02/03 11:33:52;;;;;;;13.80;1.30;;;;;;;7.69;100.00;100484.06;4994562;28;20435;-67
2023/02/03 11:36:19;;;;;;;12.83;1.43;;;;;;;7.82;100.00;100483.38;4994537;28;20517;-68